TimeCST,TemperatureF,Dew PointF,Humidity,Sea Level PressureIn,VisibilityMPH,Wind Direction,Wind SpeedMPH,Gust SpeedMPH,PrecipitationIn,Events,Conditions,WindDirDegrees,DateUTC
2:40 AM,72,69,87,30.14,6,WSW,2.2,,,,Scattered Clouds,250,2012-11-08 08:40:00
5:40 AM,69,69,98,30.14,6,NW,2.2,,,,,320,2012-11-08 11:40:00
5:44 AM,69.8,68.0,94,30.02,6.0,West,4.6,-,N/A,,Partly Cloudy,280,2012-11-08 11:44:00
6:40 AM,69.8,68.0,94,30.12,5.0,Calm,Calm,-,N/A,,Scattered Clouds,0,2012-11-08 12:40:00
7:40 AM,71.6,69.8,94,30.14,5.0,Calm,Calm,-,N/A,,Clear,0,2012-11-08 13:40:00
8:40 AM,74,69,79,30.19,11,West,2.2,,,,,270,2012-11-08 14:40:00
8:41 AM,77.0,68.0,74,30.15,6.0,Calm,Calm,-,N/A,,Clear,0,2012-11-08 14:41:00
9:52 AM,80.6,64.4,58,30.16,7.0,SSE,6.9,-,N/A,,Partly Cloudy,150,2012-11-08 15:52:00
10:43 AM,80.6,64.4,58,30.16,7.0,SSE,6.9,-,N/A,,Partly Cloudy,150,2012-11-08 16:43:00
11:40 AM,85,67,46,30.17,16,SSE,6.7,,,,Partly Cloudy,160,2012-11-08 17:40:00
11:42 AM,82.4,64.4,54,30.08,8.0,SSE,8.1,-,N/A,,Partly Cloudy,150,2012-11-08 17:42:00
12:44 PM,82.4,64.4,54,30.10,8.0,SE,6.9,-,N/A,,Partly Cloudy,130,2012-11-08 18:44:00
1:45 PM,82.4,59.0,45,30.06,10.0,SE,8.1,-,N/A,,Partly Cloudy,140,2012-11-08 19:45:00
2:45 PM,85,67,46,30.08,16,ESE,11.2,,,,Partly Cloudy,110,2012-11-08 20:45:00
2:45 PM,82.4,66.2,58,30.04,10.0,ESE,8.1,-,N/A,,Partly Cloudy,110,2012-11-08 20:45:00
3:46 PM,80.6,62.6,54,30.03,10.0,ESE,13.8,-,N/A,,Clear,110,2012-11-08 21:46:00
4:51 PM,78.8,62.6,57,30.04,10.0,East,13.8,-,N/A,,Clear,100,2012-11-08 22:51:00
5:40 PM,79,67,58,30.09,16,ESE,8.9,,,,Clear,110,2012-11-08 23:40:00
5:50 PM,77.0,60.8,57,30.05,10.0,ESE,11.5,-,N/A,,Clear,120,2012-11-08 23:50:00
6:49 PM,75.2,62.6,65,30.06,10.0,SE,10.4,-,N/A,,Clear,130,2012-11-09 00:49:00
7:47 PM,75.2,62.6,65,30.08,10.0,ESE,5.8,-,N/A,,Clear,120,2012-11-09 01:47:00
8:40 PM,72,65,72,30.13,6,ESE,6.7,,,,,110,2012-11-09 02:40:00
8:48 PM,75.2,62.6,65,30.09,10.0,SE,10.4,-,N/A,,Clear,140,2012-11-09 02:48:00
9:50 PM,75.2,62.6,65,30.10,10.0,SE,10.4,-,N/A,,Clear,130,2012-11-09 03:50:00
10:42 PM,73.4,62.6,69,30.10,10.0,SSE,6.9,-,N/A,,Clear,150,2012-11-09 04:42:00
11:40 PM,70,65,79,30.13,6,SE,4.5,,,,,130,2012-11-09 05:40:00